Time;durP1;ratioP1;P1;durP2;ratioP2;P2;SDS_P1;SDS_P2;PMS_P1;PMS_P2;Temp;Humidity;BMP_temperature;BMP_pressure;BME280_temperature;BME280_humidity;BME280_pressure;Samples;Min_cycle;Max_cycle;Signal;HPM_P1;HPM_P2
2022/02/12 00:00:41;;;;;;;33.08;11.07;;;;;;;;;;5039253;28;20033;-78
2022/02/12 00:03:07;;;;;;;34.55;15.98;;;1.50;99.90;;;;;;5039981;28;20029;-79
2022/02/12 00:05:32;;;;;;;21.88;10.57;;;1.50;99.90;;;;;;5041714;28;20618;-77
2022/02/12 00:07:59;;;;;;;27.23;10.80;;;1.50;99.90;;;;;;5041208;28;20125;-81
2022/02/12 00:10:29;;;;;;;22.88;10.25;;;1.50;99.90;;;;;;5039913;28;20024;-79
2022/02/12 00:12:55;;;;;;;23.73;10.90;;;1.50;99.90;;;;;;5018769;28;20572;-77
2022/02/12 00:15:24;;;;;;;25.05;10.32;;;;;;;;;;5039781;28;20112;-81
2022/02/12 00:17:50;;;;;;;24.98;10.95;;;1.40;99.90;;;;;;5024589;28;20598;-76
2022/02/12 00:20:17;;;;;;;25.33;10.95;;;1.40;99.90;;;;;;5037150;28;20104;-81
2022/02/12 00:22:42;;;;;;;28.98;10.77;;;1.40;99.90;;;;;;5022560;28;20033;-80
2022/02/12 00:25:09;;;;;;;19.73;9.27;;;1.40;99.90;;;;;;5019546;28;20029;-77
2022/02/12 00:27:35;;;;;;;22.50;9.98;;;1.30;99.90;;;;;;5040523;28;20036;-78
2022/02/12 00:30:01;;;;;;;22.02;9.55;;;1.30;99.90;;;;;;5037895;28;20021;-81
2022/02/12 00:32:27;;;;;;;21.98;9.98;;;;;;;;;;5021678;28;20025;-79
2022/02/12 00:34:53;;;;;;;21.15;9.55;;;1.20;99.90;;;;;;5021474;28;20397;-79
2022/02/12 00:37:19;;;;;;;19.92;9.38;;;1.30;99.90;;;;;;5019832;28;20033;-83
2022/02/12 00:39:44;;;;;;;24.48;10.40;;;1.30;99.90;;;;;;5044416;28;20040;-77
2022/02/12 00:42:11;;;;;;;24.88;10.43;;;1.20;99.90;;;;;;5040000;28;20233;-77
2022/02/12 00:44:36;;;;;;;20.08;9.07;;;1.20;99.90;;;;;;5038244;28;20025;-79
2022/02/12 00:47:03;;;;;;;20.30;9.10;;;1.20;99.90;;;;;;5037961;28;20040;-82
2022/02/12 00:49:29;;;;;;;25.33;10.05;;;;;;;;;;5040494;28;20025;-78
2022/02/12 00:51:55;;;;;;;21.17;9.30;;;;;;;;;;5024312;28;20060;-80
2022/02/12 00:54:20;;;;;;;26.27;10.05;;;1.20;99.90;;;;;;5038857;28;20029;-79
2022/02/12 00:56:46;;;;;;;23.30;8.98;;;1.20;99.90;;;;;;5039253;28;20604;-77
2022/02/12 00:59:12;;;;;;;22.45;8.88;;;2.00;99.90;;;;;;5039744;28;20509;-75
2022/02/12 01:01:38;;;;;;;26.67;10.15;;;;;;;;;;5020577;28;20053;-78
2022/02/12 01:04:04;;;;;;;23.60;9.93;;;1.10;99.90;;;;;;5018780;28;20076;-78
2022/02/12 01:06:31;;;;;;;24.70;10.23;;;;;;;;;;5039177;28;20043;-80
2022/02/12 01:08:57;;;;;;;19.17;8.95;;;;;;;;;;5039072;28;20514;-81
2022/02/12 01:11:23;;;;;;;19.38;9.70;;;;;;;;;;5041748;28;20076;-79
2022/02/12 01:13:49;;;;;;;22.02;9.13;;;;;;;;;;5040044;28;20064;-80
2022/02/12 01:16:15;;;;;;;23.48;9.27;;;;;;;;;;5041179;28;20025;-79
2022/02/12 01:18:42;;;;;;;24.95;9.38;;;;;;;;;;5020017;28;20064;-81
2022/02/12 01:21:08;;;;;;;20.65;9.13;;;1.10;99.90;;;;;;5022076;28;20029;-80
2022/02/12 01:23:35;;;;;;;23.40;9.63;;;4.90;99.90;;;;;;5040028;28;20021;-80
2022/02/12 01:26:01;;;;;;;20.52;9.98;;;1.10;99.90;;;;;;5022283;28;20029;-77
2022/02/12 01:28:27;;;;;;;24.23;10.90;;;1.10;99.90;;;;;;5021739;28;20097;-79
2022/02/12 01:30:52;;;;;;;16.08;8.63;;;1.10;99.90;;;;;;5034434;28;20498;-79
2022/02/12 01:33:18;;;;;;;21.88;9.80;;;1.10;99.90;;;;;;5019438;28;20031;-80
2022/02/12 01:35:44;;;;;;;19.58;9.68;;;1.00;99.90;;;;;;5034922;28;20052;-77
2022/02/12 01:38:09;;;;;;;23.25;9.68;;;0.90;99.90;;;;;;5017675;28;20183;-80
2022/02/12 01:40:35;;;;;;;23.42;11.07;;;1.00;99.90;;;;;;5034453;28;20216;-81
2022/02/12 01:43:02;;;;;;;22.88;10.18;;;1.00;99.90;;;;;;5023507;28;20067;-80
2022/02/12 01:45:29;;;;;;;24.13;9.90;;;1.00;99.90;;;;;;5041993;28;20036;-79
2022/02/12 01:47:55;;;;;;;22.20;9.70;;;;;;;;;;5039351;28;20413;-79
2022/02/12 01:50:21;;;;;;;21.98;9.13;;;1.00;99.90;;;;;;5040957;28;20017;-79
2022/02/12 01:52:48;;;;;;;25.88;10.57;;;1.00;99.90;;;;;;5023203;28;20029;-79
2022/02/12 01:55:14;;;;;;;22.98;9.68;;;1.00;99.90;;;;;;5024698;28;20028;-78
2022/02/12 01:57:40;;;;;;;22.90;9.25;;;0.90;99.90;;;;;;5019086;28;20075;-81
2022/02/12 02:00:08;;;;;;;18.85;9.13;;;0.90;99.90;;;;;;5041146;28;20454;-82
2022/02/12 02:02:37;;;;;;;20.42;9.27;;;;;;;;;;5040138;28;20044;-79
2022/02/12 02:05:04;;;;;;;21.25;10.23;;;0.90;99.90;;;;;;5017940;28;20028;-78
2022/02/12 02:07:31;;;;;;;21.88;8.50;;;;;;;;;;5019076;28;20043;-80
2022/02/12 02:09:56;;;;;;;24.63;10.32;;;0.90;99.90;;;;;;5017031;28;20501;-78
2022/02/12 02:12:22;;;;;;;22.45;9.45;;;0.90;99.90;;;;;;5043718;28;20036;-79
2022/02/12 02:14:48;;;;;;;25.23;9.80;;;;;;;;;;5046559;28;20033;-77
2022/02/12 02:17:14;;;;;;;23.85;9.57;;;;;;;;;;5023615;28;20111;-80
2022/02/12 02:19:40;;;;;;;18.60;9.05;;;;;;;;;;5021208;28;20281;-78
2022/02/12 02:22:09;;;;;;;23.88;9.25;;;0.80;99.90;;;;;;5036998;28;20036;-80
2022/02/12 02:24:35;;;;;;;23.40;9.32;;;;;;;;;;5038439;28;20033;-80
2022/02/12 02:27:09;;;;;;;20.98;9.52;;;0.80;99.90;;;;;;5024050;28;20513;-79
2022/02/12 02:29:38;;;;;;;22.65;9.85;;;0.80;99.90;;;;;;5027927;28;20106;-80
2022/02/12 02:32:04;;;;;;;21.73;10.13;;;;;;;;;;5029549;28;20129;-79
2022/02/12 02:34:31;;;;;;;27.10;10.05;;;0.70;99.90;;;;;;5042350;28;20036;-78
2022/02/12 02:36:57;;;;;;;20.33;9.40;;;;;;;;;;5021493;28;20043;-78
2022/02/12 02:39:23;;;;;;;22.83;9.43;;;;;;;;;;5021399;28;20071;-80
2022/02/12 02:41:49;;;;;;;22.17;9.77;;;0.80;99.90;;;;;;5035375;28;20118;-79
2022/02/12 02:44:14;;;;;;;29.20;10.40;;;0.80;99.90;;;;;;5039690;28;20036;-80
2022/02/12 02:46:40;;;;;;;23.27;9.40;;;0.80;99.90;;;;;;5036713;28;20041;-80
2022/02/12 02:57:07;;;;;;;21.27;8.98;;;;;;;;;;5034704;28;20036;-79
2022/02/12 02:59:33;;;;;;;20.70;8.80;;;;;;;;;;5045048;28;20013;-82
2022/02/12 03:01:59;;;;;;;22.83;9.02;;;;;;;;;;5065916;28;20037;-79
2022/02/12 03:04:26;;;;;;;22.30;8.30;;;;;;;;;;5051108;28;20037;-79
2022/02/12 03:06:52;;;;;;;23.73;8.18;;;;;;;;;;5048229;28;20037;-78
2022/02/12 03:09:18;;;;;;;16.13;7.78;;;;;;;;;;5028660;28;20025;-78
2022/02/12 03:11:45;;;;;;;24.42;9.00;;;;;;;;;;5047173;28;20029;-79
2022/02/12 03:14:13;;;;;;;18.90;8.90;;;;;;;;;;5045503;28;20116;-79
2022/02/12 03:16:39;;;;;;;18.80;8.60;;;;;;;;;;5026693;28;20496;-79
2022/02/12 03:19:06;;;;;;;19.33;8.32;;;;;;;;;;5034908;28;20105;-78
2022/02/12 03:21:32;;;;;;;21.58;9.43;;;;;;;;;;5031580;28;20033;-79
2022/02/12 03:23:58;;;;;;;16.40;8.18;;;0.60;99.90;;;;;;5053713;28;20083;-78
2022/02/12 03:26:24;;;;;;;20.17;8.95;;;0.60;99.90;;;;;;5054100;28;20030;-79
2022/02/12 03:28:49;;;;;;;24.10;8.63;;;0.60;99.90;;;;;;5039203;28;20124;-78
2022/02/12 03:31:15;;;;;;;23.85;8.98;;;1.00;99.90;;;;;;5038820;28;20080;-78
2022/02/12 03:33:41;;;;;;;17.23;8.15;;;0.60;99.90;;;;;;5037234;28;20097;-78
2022/02/12 03:36:07;;;;;;;17.98;8.20;;;0.60;99.90;;;;;;5037403;28;20036;-78
2022/02/12 03:38:36;;;;;;;16.27;8.02;;;0.60;99.90;;;;;;5055214;28;20025;-79
2022/02/12 03:41:04;;;;;;;19.17;7.78;;;0.60;99.90;;;;;;5022427;28;20044;-77
2022/02/12 03:43:35;;;;;;;16.40;7.70;;;0.60;99.90;;;;;;5036672;28;20205;-78
2022/02/12 03:46:03;;;;;;;19.45;7.53;;;0.60;99.90;;;;;;5036440;28;20041;-76
2022/02/12 03:48:29;;;;;;;22.48;8.43;;;1.90;99.90;;;;;;5051719;28;20164;-77
2022/02/12 03:50:56;;;;;;;16.15;7.68;;;0.60;99.90;;;;;;5067293;28;20076;-78
2022/02/12 03:53:23;;;;;;;18.60;8.05;;;0.60;99.90;;;;;;5054207;28;20028;-77
2022/02/12 03:55:53;;;;;;;23.75;8.18;;;0.60;99.90;;;;;;5052475;28;20033;-77
2022/02/12 03:58:20;;;;;;;19.67;7.32;;;0.60;99.90;;;;;;5041143;28;20101;-77
2022/02/12 04:00:48;;;;;;;17.48;7.90;;;0.60;99.90;;;;;;5037536;28;20067;-78
2022/02/12 04:03:14;;;;;;;19.95;8.20;;;0.60;99.90;;;;;;5055700;28;20025;-78
2022/02/12 04:05:46;;;;;;;19.77;7.78;;;0.60;99.90;;;;;;5055020;28;20017;-77
2022/02/12 04:08:18;;;;;;;14.80;7.00;;;0.60;99.90;;;;;;5037748;28;20044;-76
2022/02/12 04:10:44;;;;;;;17.48;7.35;;;0.60;99.90;;;;;;5036640;28;20024;-76
2022/02/12 04:13:11;;;;;;;16.08;7.28;;;0.60;99.90;;;;;;5029964;28;20525;-77
2022/02/12 04:15:36;;;;;;;19.02;7.00;;;0.60;99.90;;;;;;5036032;28;20371;-79
2022/02/12 04:18:02;;;;;;;17.45;7.10;;;0.60;99.90;;;;;;5019293;28;20089;-79
2022/02/12 04:20:29;;;;;;;18.35;7.88;;;0.60;99.90;;;;;;5023371;28;20094;-80
2022/02/12 04:22:55;;;;;;;22.45;8.40;;;0.50;99.90;;;;;;5035118;28;20029;-79
2022/02/12 04:25:23;;;;;;;22.85;10.68;;;0.50;99.90;;;;;;5038685;28;20022;-78
2022/02/12 04:27:48;;;;;;;22.02;11.18;;;0.50;99.90;;;;;;5038134;28;20037;-79
2022/02/12 04:30:15;;;;;;;29.27;13.88;;;0.50;99.90;;;;;;5017734;28;20033;-79
2022/02/12 04:32:41;;;;;;;31.48;14.75;;;0.40;99.90;;;;;;5032990;28;20159;-78
2022/02/12 04:35:09;;;;;;;27.67;15.70;;;0.40;99.90;;;;;;5035471;28;20678;-78
2022/02/12 04:37:35;;;;;;;35.83;16.90;;;0.40;99.90;;;;;;5038117;28;20032;-78
2022/02/12 04:40:02;;;;;;;32.03;16.08;;;0.40;99.90;;;;;;5035136;28;20167;-79
2022/02/12 04:42:28;;;;;;;32.92;16.70;;;0.40;99.90;;;;;;5031466;28;20175;-78
2022/02/12 04:44:54;;;;;;;36.95;17.67;;;0.30;99.90;;;;;;5010673;28;20064;-78
2022/02/12 04:47:21;;;;;;;31.38;17.83;;;0.30;99.90;;;;;;5020972;28;20091;-79
2022/02/12 04:49:49;;;;;;;32.10;16.85;;;0.60;99.90;;;;;;5042730;28;20026;-77
2022/02/12 04:52:18;;;;;;;28.60;16.63;;;0.30;99.90;;;;;;5039760;28;20057;-78
2022/02/12 04:54:44;;;;;;;34.47;17.60;;;0.30;99.90;;;;;;5027881;28;20389;-79
2022/02/12 04:57:10;;;;;;;29.70;16.42;;;0.30;99.90;;;;;;5041109;28;20040;-80
2022/02/12 04:59:36;;;;;;;29.30;14.70;;;0.30;99.90;;;;;;5019189;28;20033;-79
2022/02/12 05:02:04;;;;;;;28.63;15.75;;;0.30;99.90;;;;;;5031874;28;20056;-80
2022/02/12 05:04:30;;;;;;;26.77;17.13;;;0.30;99.90;;;;;;5010785;28;20033;-78
2022/02/12 05:06:56;;;;;;;30.38;16.25;;;0.40;99.90;;;;;;5018333;28;20026;-78
2022/02/12 05:09:22;;;;;;;25.52;15.15;;;0.30;99.90;;;;;;5032182;28;20107;-78
2022/02/12 05:11:50;;;;;;;32.70;16.70;;;0.30;99.90;;;;;;5018962;28;20022;-78
2022/02/12 05:14:17;;;;;;;34.85;17.20;;;0.40;99.90;;;;;;5014460;28;20029;-79
2022/02/12 05:16:43;;;;;;;28.92;16.77;;;0.30;99.90;;;;;;5017283;28;20065;-77
2022/02/12 05:19:10;;;;;;;27.30;15.65;;;0.30;99.90;;;;;;5034670;28;20042;-79
2022/02/12 05:21:36;;;;;;;32.28;15.82;;;0.30;99.90;;;;;;5051194;28;20029;-78
2022/02/12 05:24:02;;;;;;;28.35;14.05;;;0.30;99.90;;;;;;5016964;28;20037;-79
2022/02/12 05:26:29;;;;;;;23.75;10.23;;;-0.30;99.90;;;;;;5033602;28;20095;-78
2022/02/12 05:28:55;;;;;;;18.80;9.80;;;0.40;99.90;;;;;;5031700;28;20039;-78
2022/02/12 05:31:22;;;;;;;28.42;9.38;;;0.40;99.90;;;;;;5034668;28;20037;-79
2022/02/12 05:33:48;;;;;;;21.77;7.13;;;0.30;99.90;;;;;;5031165;28;20343;-77
2022/02/12 05:36:15;;;;;;;14.23;6.35;;;0.60;99.90;;;;;;5014925;28;20105;-79
2022/02/12 05:38:41;;;;;;;18.67;7.32;;;0.40;99.90;;;;;;5030165;28;20044;-77
2022/02/12 05:41:08;;;;;;;20.13;7.63;;;0.30;99.90;;;;;;5015541;28;20033;-79
2022/02/12 05:43:34;;;;;;;13.55;6.47;;;0.30;99.90;;;;;;5019223;28;20025;-79
2022/02/12 05:46:01;;;;;;;16.38;6.28;;;0.30;99.90;;;;;;5034155;28;20036;-78
2022/02/12 05:48:27;;;;;;;17.40;6.18;;;;;;;;;;5031525;28;20033;-81
2022/02/12 05:50:55;;;;;;;11.82;5.53;;;0.30;99.90;;;;;;5039658;28;20375;-81
2022/02/12 05:53:23;;;;;;;20.05;6.65;;;0.30;99.90;;;;;;4993313;28;20087;-79
2022/02/12 05:55:49;;;;;;;16.65;5.63;;;0.30;99.90;;;;;;5038115;28;20494;-79
2022/02/12 05:58:15;;;;;;;15.27;5.78;;;0.30;99.90;;;;;;5017505;28;20119;-79
2022/02/12 06:00:42;;;;;;;14.07;5.22;;;-0.80;99.90;;;;;;5014446;28;20064;-80
2022/02/12 06:03:08;;;;;;;13.70;5.45;;;0.30;99.90;;;;;;5032843;28;20033;-81
2022/02/12 06:05:34;;;;;;;15.68;5.82;;;0.30;99.90;;;;;;5033263;28;20044;-78
2022/02/12 06:08:01;;;;;;;16.80;5.20;;;0.30;99.90;;;;;;5038658;28;20033;-77
2022/02/12 06:10:27;;;;;;;14.40;6.10;;;0.30;99.90;;;;;;5046053;28;20026;-78
2022/02/12 06:12:54;;;;;;;21.92;6.40;;;0.30;99.90;;;;;;5017961;28;20030;-78
2022/02/12 06:15:21;;;;;;;17.23;5.38;;;0.30;99.90;;;;;;5041726;28;20037;-78
2022/02/12 06:17:47;;;;;;;23.25;7.32;;;0.30;99.90;;;;;;5028480;28;20091;-78
2022/02/12 06:20:13;;;;;;;21.27;6.32;;;0.30;99.90;;;;;;5046184;28;20037;-79
2022/02/12 06:22:39;;;;;;;17.75;5.68;;;0.30;99.90;;;;;;5035462;28;20064;-79
2022/02/12 06:25:06;;;;;;;15.75;5.10;;;0.30;99.90;;;;;;5031461;28;20933;-78
2022/02/12 06:27:32;;;;;;;13.30;4.78;;;0.30;99.90;;;;;;5037735;28;20033;-79
2022/02/12 06:29:58;;;;;;;14.13;5.05;;;1.30;99.90;;;;;;5020913;28;20070;-77
2022/02/12 06:32:24;;;;;;;14.60;4.55;;;-0.40;99.90;;;;;;5019924;28;20029;-79
2022/02/12 06:34:58;;;;;;;13.02;4.20;;;0.40;99.90;;;;;;5018050;28;20059;-77
2022/02/12 06:37:24;;;;;;;11.40;4.45;;;0.40;99.90;;;;;;5039120;28;20083;-80
2022/02/12 06:39:53;;;;;;;9.93;4.10;;;0.40;99.90;;;;;;5046478;28;20056;-77
2022/02/12 06:42:20;;;;;;;20.33;4.93;;;0.40;99.90;;;;;;5043538;28;20113;-77
2022/02/12 06:44:47;;;;;;;18.55;4.95;;;0.40;99.90;;;;;;5050958;28;20295;-78
2022/02/12 06:47:15;;;;;;;18.23;5.13;;;0.40;99.90;;;;;;5008571;28;20036;-78
2022/02/12 06:49:42;;;;;;;14.93;5.15;;;0.40;99.90;;;;;;5009404;28;20116;-77
2022/02/12 06:52:09;;;;;;;15.35;5.28;;;0.40;99.90;;;;;;5008736;28;20116;-79
2022/02/12 06:54:36;;;;;;;10.82;4.18;;;0.40;99.90;;;;;;5023606;28;20038;-77
2022/02/12 06:57:03;;;;;;;14.95;4.68;;;0.40;99.90;;;;;;5046200;28;20063;-76
2022/02/12 06:59:29;;;;;;;15.48;5.18;;;0.30;99.90;;;;;;5042016;28;20048;-76
2022/02/12 07:01:57;;;;;;;15.95;4.97;;;0.40;99.90;;;;;;5029971;28;20044;-79
2022/02/12 07:04:24;;;;;;;11.65;3.95;;;0.40;99.90;;;;;;5016713;28;20155;-78
2022/02/12 07:06:50;;;;;;;12.43;4.50;;;0.40;99.90;;;;;;5039825;28;20037;-77
2022/02/12 07:09:17;;;;;;;13.52;4.90;;;0.50;99.90;;;;;;5068485;28;20040;-77
2022/02/12 07:11:44;;;;;;;14.27;4.32;;;;;;;;;;5064411;28;20136;-76
2022/02/12 07:14:10;;;;;;;14.00;3.95;;;;;;;;;;5058515;28;20758;-78
2022/02/12 07:16:37;;;;;;;17.23;5.68;;;0.50;99.90;;;;;;5032398;28;20033;-77
2022/02/12 07:19:05;;;;;;;15.55;4.88;;;0.60;99.90;;;;;;5017252;28;20120;-77
2022/02/12 07:21:33;;;;;;;16.60;4.50;;;;;;;;;;5023019;28;20705;-78
2022/02/12 07:23:59;;;;;;;16.70;4.53;;;0.60;99.90;;;;;;5045099;28;20515;-78
2022/02/12 07:26:27;;;;;;;10.65;3.80;;;;;;;;;;5045174;28;20033;-77
2022/02/12 07:28:55;;;;;;;13.10;4.43;;;0.60;99.90;;;;;;5026026;28;20021;-79
2022/02/12 07:31:21;;;;;;;16.92;4.70;;;;;;;;;;5032741;28;20413;-77
2022/02/12 07:33:50;;;;;;;16.67;4.45;;;0.70;99.90;;;;;;5010888;28;20025;-79
2022/02/12 07:36:16;;;;;;;12.80;4.18;;;;;;;;;;5015572;28;20029;-78
2022/02/12 07:38:43;;;;;;;16.48;4.25;;;0.70;99.90;;;;;;5034207;28;20040;-79
2022/02/12 07:41:09;;;;;;;11.18;4.30;;;;;;;;;;5014022;28;20040;-81
2022/02/12 07:43:37;;;;;;;17.33;5.45;;;0.80;99.90;;;;;;5039676;28;20032;-79
2022/02/12 07:46:04;;;;;;;13.25;4.25;;;;;;;;;;5021188;28;20054;-79
2022/02/12 07:48:30;;;;;;;10.68;4.20;;;0.90;99.90;;;;;;5051395;28;20026;-80
2022/02/12 07:50:59;;;;;;;18.92;4.13;;;1.00;99.90;;;;;;5026277;28;20041;-78
2022/02/12 07:53:27;;;;;;;13.75;4.13;;;0.90;99.90;;;;;;5052981;28;20206;-78
2022/02/12 07:55:53;;;;;;;16.20;4.45;;;1.00;99.90;;;;;;5064398;28;20036;-79
2022/02/12 07:58:20;;;;;;;13.43;4.35;;;;;;;;;;5032848;28;20049;-81
2022/02/12 08:00:49;;;;;;;9.82;3.67;;;1.10;99.90;;;;;;5062832;28;20097;-80
2022/02/12 08:03:15;;;;;;;13.05;4.93;;;1.10;99.90;;;;;;5039113;28;20040;-80
2022/02/12 08:05:41;;;;;;;16.52;4.80;;;1.20;99.90;;;;;;5008394;28;20095;-80
2022/02/12 08:08:07;;;;;;;13.73;3.67;;;1.20;99.90;;;;;;5033903;28;20041;-79
2022/02/12 08:13:19;;;;;;;13.63;3.83;;;1.30;99.90;;;;;;5031147;28;20044;-79
2022/02/12 08:15:45;;;;;;;15.70;4.40;;;1.30;99.90;;;;;;5034277;28;20199;-81
2022/02/12 08:18:11;;;;;;;14.07;4.43;;;1.50;99.90;;;;;;5014257;28;20045;-81
2022/02/12 08:20:37;;;;;;;17.70;4.80;;;1.30;99.90;;;;;;5017376;28;20029;-81
2022/02/12 08:23:05;;;;;;;17.80;5.07;;;1.50;99.90;;;;;;5033132;28;20099;-81
2022/02/12 08:25:31;;;;;;;15.93;4.38;;;1.60;99.90;;;;;;5027715;28;20607;-81
2022/02/12 08:27:56;;;;;;;13.82;4.10;;;1.70;99.90;;;;;;5025816;28;20097;-81
2022/02/12 08:30:23;;;;;;;11.63;4.68;;;1.70;99.90;;;;;;5014932;28;20029;-80
2022/02/12 08:32:49;;;;;;;13.00;5.00;;;1.80;99.90;;;;;;5029109;28;20024;-80
2022/02/12 08:35:15;;;;;;;14.27;5.38;;;1.90;99.90;;;;;;5013658;28;20394;-80
2022/02/12 08:37:43;;;;;;;16.33;4.32;;;3.00;99.90;;;;;;5029767;28;20037;-80
2022/02/12 08:40:11;;;;;;;14.68;4.70;;;2.80;99.90;;;;;;5039715;28;20040;-80
2022/02/12 08:42:37;;;;;;;13.32;3.75;;;2.10;99.90;;;;;;5010548;28;20037;-80
2022/02/12 08:45:05;;;;;;;17.15;4.47;;;2.30;99.90;;;;;;5027267;28;20041;-80
2022/02/12 08:47:31;;;;;;;12.52;4.13;;;;;;;;;;5043773;28;20040;-81
2022/02/12 08:49:57;;;;;;;12.52;3.60;;;;;;;;;;5065466;22;20044;-81
2022/02/12 08:52:24;;;;;;;13.38;4.10;;;2.40;99.90;;;;;;5053032;28;20194;-82
2022/02/12 08:54:51;;;;;;;11.40;3.55;;;2.50;99.90;;;;;;5033642;28;20029;-82
2022/02/12 08:57:17;;;;;;;10.82;4.00;;;2.60;99.90;;;;;;5043898;28;20510;-81
2022/02/12 08:59:43;;;;;;;18.15;5.10;;;2.60;99.90;;;;;;5040591;28;20384;-80
2022/02/12 09:02:17;;;;;;;16.73;4.85;;;2.70;99.90;;;;;;5037450;28;20485;-82
2022/02/12 09:04:45;;;;;;;12.30;4.32;;;;;;;;;;5037295;28;20032;-82
2022/02/12 09:07:11;;;;;;;14.98;4.78;;;2.80;99.90;;;;;;5038057;28;20755;-80
2022/02/12 09:09:42;;;;;;;14.18;3.78;;;2.90;99.90;;;;;;5036645;28;20056;-81
2022/02/12 09:12:08;;;;;;;14.63;4.35;;;;;;;;;;5039417;28;20029;-80
2022/02/12 09:14:34;;;;;;;11.73;4.10;;;;;;;;;;5035510;28;20136;-79
2022/02/12 09:17:01;;;;;;;13.60;4.47;;;3.10;99.90;;;;;;5042738;28;20040;-80
2022/02/12 09:19:27;;;;;;;15.40;5.13;;;3.10;99.90;;;;;;5040815;28;20034;-79
2022/02/12 09:21:53;;;;;;;12.43;4.07;;;3.40;99.90;;;;;;5039369;28;21068;-81
2022/02/12 09:24:19;;;;;;;21.38;4.82;;;3.30;99.90;;;;;;5044439;28;20727;-80
2022/02/12 09:26:46;;;;;;;13.43;4.40;;;3.40;99.90;;;;;;5046944;28;20062;-80
2022/02/12 09:29:12;;;;;;;12.38;3.80;;;;;;;;;;5043719;28;20112;-80
2022/02/12 09:31:39;;;;;;;11.70;3.75;;;;;;;;;;5022193;28;20074;-81
2022/02/12 09:34:08;;;;;;;14.77;4.05;;;;;;;;;;5043070;28;20290;-78
2022/02/12 09:36:35;;;;;;;11.30;4.15;;;3.70;99.90;;;;;;5043455;28;20080;-82
2022/02/12 09:39:01;;;;;;;18.38;5.63;;;3.80;99.90;;;;;;5040654;28;20029;-82
2022/02/12 09:41:27;;;;;;;15.88;4.13;;;3.80;99.90;;;;;;5041718;28;20025;-82
2022/02/12 09:43:54;;;;;;;13.05;3.53;;;4.00;99.90;;;;;;5040421;28;20029;-79
2022/02/12 09:46:25;;;;;;;14.18;3.60;;;4.20;99.90;;;;;;5041033;28;20032;-79
2022/02/12 09:48:52;;;;;;;12.48;4.05;;;4.20;99.90;;;;;;5039106;28;20032;-80
2022/02/12 09:51:18;;;;;;;14.05;3.33;;;4.40;99.90;;;;;;5041373;28;20469;-79
2022/02/12 09:53:44;;;;;;;9.35;3.40;;;;;;;;;;5039453;28;20018;-82
2022/02/12 09:56:11;;;;;;;12.20;3.72;;;4.40;99.90;;;;;;5051228;28;20073;-81
2022/02/12 09:58:37;;;;;;;14.02;3.78;;;;;;;;;;5051320;28;20036;-80
2022/02/12 10:01:03;;;;;;;13.18;3.40;;;;;;;;;;5040912;28;20025;-81
2022/02/12 10:03:30;;;;;;;9.55;3.65;;;4.50;99.90;;;;;;5044619;28;20096;-83
2022/02/12 10:05:55;;;;;;;13.50;4.07;;;4.60;99.90;;;;;;5037772;28;20496;-82
2022/02/12 10:08:22;;;;;;;20.08;4.03;;;4.70;99.90;;;;;;5050381;28;20024;-82
2022/02/12 10:10:53;;;;;;;12.00;3.70;;;4.90;99.90;;;;;;5049287;28;20017;-82
2022/02/12 10:13:20;;;;;;;13.32;3.58;;;;;;;;;;5044653;28;20033;-81
2022/02/12 10:15:47;;;;;;;13.45;3.35;;;5.10;99.90;;;;;;5043454;28;20411;-82
2022/02/12 10:18:13;;;;;;;11.40;3.58;;;;;;;;;;5060349;28;20052;-83
2022/02/12 10:20:42;;;;;;;10.95;3.78;;;5.40;99.90;;;;;;5041448;28;20040;-80
2022/02/12 10:23:21;;;;;;;10.75;3.60;;;5.60;99.90;;;;;;5050390;28;20105;-82
2022/02/12 10:26:09;;;;;;;11.55;3.45;;;5.90;99.90;;;;;;5053861;28;20083;-81
2022/02/12 10:28:35;;;;;;;12.55;3.72;;;;;;;;;;5031395;28;20048;-80
2022/02/12 10:31:05;;;;;;;8.68;3.30;;;5.70;99.90;;;;;;5066688;28;20032;-82
2022/02/12 10:33:45;;;;;;;12.75;4.18;;;5.50;99.90;;;;;;5059807;28;20422;-80
2022/02/12 10:36:15;;;;;;;14.13;3.78;;;5.50;99.90;;;;;;5050190;28;20037;-81
2022/02/12 10:38:49;;;;;;;11.82;3.72;;;5.50;99.90;;;;;;5031764;28;20132;-83
2022/02/12 10:41:17;;;;;;;17.10;4.50;;;5.50;99.90;;;;;;5043976;28;20089;-83
2022/02/12 10:43:46;;;;;;;12.25;4.15;;;5.50;99.90;;;;;;5047626;28;20055;-82
2022/02/12 10:46:12;;;;;;;13.55;4.10;;;5.50;99.90;;;;;;5063661;28;20195;-81
2022/02/12 10:48:48;;;;;;;14.05;3.78;;;5.60;99.90;;;;;;5044419;28;20365;-79
2022/02/12 10:51:16;;;;;;;14.02;3.72;;;5.60;99.90;;;;;;5041769;28;20037;-83
2022/02/12 10:54:06;;;;;;;11.82;3.60;;;5.70;99.90;;;;;;5032265;28;20044;-81
2022/02/12 10:56:51;;;;;;;7.82;3.75;;;5.60;99.90;;;;;;5048703;28;20436;-82
2022/02/12 10:59:23;;;;;;;10.30;3.85;;;5.80;99.90;;;;;;5046365;28;20045;-83
2022/02/12 11:02:07;;;;;;;12.45;3.90;;;5.80;99.90;;;;;;5042570;28;20041;-83
2022/02/12 11:04:39;;;;;;;12.70;3.72;;;6.00;99.90;;;;;;5044607;28;20037;-83
2022/02/12 11:07:07;;;;;;;11.70;4.00;;;6.00;99.90;;;;;;5064295;28;20078;-86
2022/02/12 11:09:34;;;;;;;11.05;3.35;;;6.20;99.90;;;;;;5048660;28;20053;-83
2022/02/12 11:12:04;;;;;;;9.40;3.25;;;6.30;99.90;;;;;;5061032;28;20493;-82
2022/02/12 11:14:35;;;;;;;9.25;2.97;;;6.40;99.90;;;;;;5044634;28;20029;-82
2022/02/12 11:17:08;;;;;;;11.85;3.30;;;6.50;99.90;;;;;;5046184;28;20036;-80
2022/02/12 11:19:36;;;;;;;12.00;3.47;;;6.50;99.90;;;;;;5045752;28;20028;-79
2022/02/12 11:22:03;;;;;;;8.23;3.15;;;6.50;99.90;;;;;;5049263;28;20037;-81
2022/02/12 11:24:44;;;;;;;7.70;3.42;;;6.80;99.90;;;;;;5064761;28;20048;-81
2022/02/12 11:27:20;;;;;;;;;;;6.90;99.90;;;;;;5056445;28;20076;-83
2022/02/12 11:30:19;;;;;;;12.15;3.13;;;6.90;99.90;;;;;;5053198;28;19927;-83
2022/02/12 11:32:46;;;;;;;8.15;3.35;;;6.90;99.90;;;;;;5048786;28;20017;-83
2022/02/12 11:36:11;;;;;;;6.40;2.83;;;7.00;99.90;;;;;;5050920;28;20805;-81
2022/02/12 11:38:44;;;;;;;12.68;3.13;;;7.00;99.90;;;;;;5058347;28;20034;-81
2022/02/12 11:41:27;;;;;;;9.05;3.17;;;7.00;99.90;;;;;;5053464;28;20021;-79
2022/02/12 11:43:56;;;;;;;9.52;3.03;;;6.90;99.90;;;;;;5052881;28;20025;-83
2022/02/12 11:46:51;;;;;;;8.52;3.08;;;6.80;99.90;;;;;;5051647;28;20431;-81
2022/02/12 11:49:31;;;;;;;9.80;3.28;;;6.90;99.90;;;;;;5053902;28;20036;-84
2022/02/12 11:52:28;;;;;;;9.60;3.00;;;7.00;99.90;;;;;;5058626;28;20092;-84
2022/02/12 11:55:00;;;;;;;7.55;3.05;;;6.90;99.90;;;;;;5058191;28;20029;-83
2022/02/12 11:57:27;;;;;;;5.90;2.67;;;6.90;99.90;;;;;;5064902;28;20021;-85
2022/02/12 12:03:06;;;;;;;15.10;3.70;;;6.90;99.90;;;;;;5052422;28;20043;-82
2022/02/12 12:06:38;;;;;;;7.90;2.80;;;6.80;99.90;;;;;;5054359;28;20044;-81
2022/02/12 12:10:21;;;;;;;8.52;3.13;;;6.70;99.90;;;;;;5058596;28;20028;-81
2022/02/12 12:12:47;;;;;;;6.38;2.55;;;6.90;99.50;;;;;;5058166;28;20044;-80
2022/02/12 12:15:26;;;;;;;9.95;2.70;;;7.00;99.80;;;;;;5050270;28;20025;-82
2022/02/12 12:18:35;;;;;;;8.05;2.90;;;7.00;98.80;;;;;;5066524;28;20044;-86
2022/02/12 12:21:01;;;;;;;6.95;3.08;;;7.10;98.60;;;;;;5056997;28;20029;-86
2022/02/12 12:23:48;;;;;;;7.25;2.42;;;7.20;97.10;;;;;;5065151;28;20040;-81
2022/02/12 12:26:49;;;;;;;10.43;3.05;;;7.30;97.10;;;;;;5064113;28;20179;-82
2022/02/12 12:32:14;;;;;;;7.82;3.22;;;7.40;97.20;;;;;;5065089;28;20071;-81
2022/02/12 12:35:00;;;;;;;6.05;2.70;;;7.40;96.40;;;;;;5047236;28;20082;-83
2022/02/12 12:37:29;;;;;;;8.13;3.08;;;7.50;97.20;;;;;;5064787;28;20033;-80
2022/02/12 12:40:06;;;;;;;9.45;3.28;;;7.50;96.20;;;;;;5065851;28;20029;-82
2022/02/12 12:42:35;;;;;;;8.15;3.65;;;7.60;96.00;;;;;;5075493;28;20025;-86
2022/02/12 12:45:44;;;;;;;10.45;3.20;;;7.70;96.30;;;;;;5064765;28;20036;-83
2022/02/12 12:48:13;;;;;;;7.97;3.08;;;7.70;95.20;;;;;;5066539;28;20033;-84
2022/02/12 12:51:00;;;;;;;8.13;3.08;;;6.60;95.60;;;;;;5059229;28;20071;-81
2022/02/12 12:53:48;;;;;;;9.52;2.70;;;7.60;95.10;;;;;;5056159;28;20177;-83
2022/02/12 12:56:37;;;;;;;7.22;2.60;;;7.50;95.70;;;;;;5065720;28;20037;-81
2022/02/12 12:59:15;;;;;;;7.43;2.78;;;7.30;95.70;;;;;;5062344;28;20073;-81
2022/02/12 13:02:02;;;;;;;7.15;2.80;;;7.40;95.80;;;;;;5068319;28;20041;-80
2022/02/12 13:04:45;;;;;;;8.98;3.38;;;6.80;95.70;;;;;;5071169;28;20033;-80
2022/02/12 13:07:19;;;;;;;6.07;2.80;;;7.50;96.20;;;;;;5063212;28;20033;-82
2022/02/12 13:09:47;;;;;;;10.00;2.78;;;7.40;96.20;;;;;;5069889;28;20268;-89
2022/02/12 13:12:35;;;;;;;5.75;2.38;;;7.30;97.10;;;;;;5067844;28;20029;-81
2022/02/12 13:15:13;;;;;;;8.40;2.53;;;7.40;97.60;;;;;;5062734;28;20040;-83
2022/02/12 13:17:46;;;;;;;8.23;3.08;;;7.40;98.10;;;;;;5055861;28;20100;-84
2022/02/12 13:20:14;;;;;;;9.10;3.33;;;7.40;97.30;;;;;;5060225;28;20074;-82
2022/02/12 13:22:50;;;;;;;7.25;2.70;;;7.50;97.70;;;;;;5073712;28;20025;-82
2022/02/12 13:25:24;;;;;;;9.10;2.72;;;7.50;97.20;;;;;;5057686;28;20028;-80
2022/02/12 13:27:59;;;;;;;7.10;2.70;;;7.60;97.10;;;;;;5061092;28;20041;-87
2022/02/12 13:30:34;;;;;;;8.32;2.78;;;7.80;95.90;;;;;;5054848;28;20025;-82